sensor_id;sensor_type;location;lat;lon;timestamp;P1;durP1;ratioP1;P2;durP2;ratioP2
3083;SDS011;1552;51.952;7.618;2022-09-09T00:00:17;4.28;;;1.98;;
3083;SDS011;1552;51.952;7.618;2022-09-09T00:02:45;6.10;;;1.90;;
3083;SDS011;1552;51.952;7.618;2022-09-09T00:05:14;4.85;;;1.98;;
3083;SDS011;1552;51.952;7.618;2022-09-09T00:07:46;2.70;;;1.80;;
3083;SDS011;1552;51.952;7.618;2022-09-09T00:10:18;7.72;;;1.88;;
3083;SDS011;1552;51.952;7.618;2022-09-09T00:12:48;11.55;;;2.80;;
3083;SDS011;1552;51.952;7.618;2022-09-09T00:15:20;4.97;;;1.90;;
3083;SDS011;1552;51.952;7.618;2022-09-09T00:17:50;3.88;;;2.00;;
3083;SDS011;1552;51.952;7.618;2022-09-09T00:20:20;5.13;;;1.67;;
3083;SDS011;1552;51.952;7.618;2022-09-09T00:22:53;3.45;;;1.98;;
3083;SDS011;1552;51.952;7.618;2022-09-09T00:25:22;3.17;;;1.58;;
3083;SDS011;1552;51.952;7.618;2022-09-09T00:27:49;4.18;;;1.70;;
3083;SDS011;1552;51.952;7.618;2022-09-09T00:30:17;6.78;;;1.60;;
3083;SDS011;1552;51.952;7.618;2022-09-09T00:32:45;5.28;;;2.08;;
3083;SDS011;1552;51.952;7.618;2022-09-09T00:35:14;5.20;;;1.73;;
3083;SDS011;1552;51.952;7.618;2022-09-09T00:37:43;3.70;;;1.80;;
3083;SDS011;1552;51.952;7.618;2022-09-09T00:40:18;3.85;;;1.80;;
3083;SDS011;1552;51.952;7.618;2022-09-09T00:42:47;6.07;;;1.75;;
3083;SDS011;1552;51.952;7.618;2022-09-09T00:45:19;5.82;;;2.03;;
3083;SDS011;1552;51.952;7.618;2022-09-09T00:47:49;4.07;;;1.73;;
3083;SDS011;1552;51.952;7.618;2022-09-09T00:50:24;4.78;;;1.75;;
3083;SDS011;1552;51.952;7.618;2022-09-09T00:52:57;7.32;;;2.20;;
3083;SDS011;1552;51.952;7.618;2022-09-09T00:55:27;2.08;;;1.23;;
3083;SDS011;1552;51.952;7.618;2022-09-09T00:57:58;4.32;;;2.00;;
3083;SDS011;1552;51.952;7.618;2022-09-09T01:00:26;4.65;;;1.40;;
3083;SDS011;1552;51.952;7.618;2022-09-09T01:03:00;5.32;;;1.77;;
3083;SDS011;1552;51.952;7.618;2022-09-09T01:05:30;1.98;;;1.00;;
3083;SDS011;1552;51.952;7.618;2022-09-09T01:08:00;1.88;;;1.50;;
3083;SDS011;1552;51.952;7.618;2022-09-09T01:10:30;2.33;;;1.02;;
3083;SDS011;1552;51.952;7.618;2022-09-09T01:13:02;3.63;;;1.20;;
3083;SDS011;1552;51.952;7.618;2022-09-09T01:15:30;4.63;;;1.13;;
3083;SDS011;1552;51.952;7.618;2022-09-09T01:17:59;2.10;;;1.30;;
3083;SDS011;1552;51.952;7.618;2022-09-09T01:20:27;2.25;;;1.08;;
3083;SDS011;1552;51.952;7.618;2022-09-09T01:23:02;3.22;;;1.17;;
3083;SDS011;1552;51.952;7.618;2022-09-09T01:28:12;1.48;;;1.33;;
3083;SDS011;1552;51.952;7.618;2022-09-09T01:30:42;2.03;;;1.10;;
3083;SDS011;1552;51.952;7.618;2022-09-09T01:33:13;2.22;;;1.30;;
3083;SDS011;1552;51.952;7.618;2022-09-09T01:35:41;4.38;;;1.50;;
3083;SDS011;1552;51.952;7.618;2022-09-09T01:38:09;2.75;;;1.10;;
3083;SDS011;1552;51.952;7.618;2022-09-09T01:40:37;3.90;;;1.58;;
3083;SDS011;1552;51.952;7.618;2022-09-09T01:43:04;2.90;;;1.50;;
3083;SDS011;1552;51.952;7.618;2022-09-09T01:45:33;3.58;;;1.60;;
3083;SDS011;1552;51.952;7.618;2022-09-09T01:47:59;1.67;;;1.45;;
3083;SDS011;1552;51.952;7.618;2022-09-09T01:50:27;4.35;;;1.67;;
3083;SDS011;1552;51.952;7.618;2022-09-09T01:52:54;1.58;;;1.48;;
3083;SDS011;1552;51.952;7.618;2022-09-09T01:55:24;3.65;;;2.00;;
3083;SDS011;1552;51.952;7.618;2022-09-09T01:57:54;2.40;;;1.95;;
3083;SDS011;1552;51.952;7.618;2022-09-09T02:00:22;4.10;;;1.47;;
3083;SDS011;1552;51.952;7.618;2022-09-09T02:02:52;2.23;;;1.40;;
3083;SDS011;1552;51.952;7.618;2022-09-09T02:05:23;3.15;;;1.45;;
3083;SDS011;1552;51.952;7.618;2022-09-09T02:07:55;1.80;;;1.40;;
3083;SDS011;1552;51.952;7.618;2022-09-09T02:10:28;1.95;;;1.35;;
3083;SDS011;1552;51.952;7.618;2022-09-09T02:12:57;2.83;;;1.58;;
3083;SDS011;1552;51.952;7.618;2022-09-09T02:15:26;3.83;;;1.20;;
3083;SDS011;1552;51.952;7.618;2022-09-09T02:17:56;2.10;;;1.20;;
3083;SDS011;1552;51.952;7.618;2022-09-09T02:20:23;2.63;;;1.40;;
3083;SDS011;1552;51.952;7.618;2022-09-09T02:22:51;1.75;;;1.25;;
3083;SDS011;1552;51.952;7.618;2022-09-09T02:25:19;2.38;;;1.40;;
3083;SDS011;1552;51.952;7.618;2022-09-09T02:27:47;3.20;;;1.40;;
3083;SDS011;1552;51.952;7.618;2022-09-09T02:30:13;3.42;;;1.30;;
3083;SDS011;1552;51.952;7.618;2022-09-09T02:32:43;2.25;;;1.45;;
3083;SDS011;1552;51.952;7.618;2022-09-09T02:35:16;4.18;;;1.80;;
3083;SDS011;1552;51.952;7.618;2022-09-09T02:37:44;2.72;;;1.48;;
3083;SDS011;1552;51.952;7.618;2022-09-09T02:40:12;5.50;;;1.77;;
3083;SDS011;1552;51.952;7.618;2022-09-09T02:42:40;2.30;;;1.30;;
3083;SDS011;1552;51.952;7.618;2022-09-09T02:45:07;4.50;;;1.50;;
3083;SDS011;1552;51.952;7.618;2022-09-09T02:47:36;1.40;;;1.30;;
3083;SDS011;1552;51.952;7.618;2022-09-09T02:50:09;3.00;;;1.43;;
3083;SDS011;1552;51.952;7.618;2022-09-09T02:52:42;1.53;;;1.43;;
3083;SDS011;1552;51.952;7.618;2022-09-09T02:55:11;3.78;;;1.52;;
3083;SDS011;1552;51.952;7.618;2022-09-09T02:57:40;3.60;;;1.30;;
3083;SDS011;1552;51.952;7.618;2022-09-09T03:00:08;2.20;;;1.23;;
3083;SDS011;1552;51.952;7.618;2022-09-09T03:02:36;3.57;;;1.37;;
3083;SDS011;1552;51.952;7.618;2022-09-09T03:05:03;3.47;;;1.75;;
3083;SDS011;1552;51.952;7.618;2022-09-09T03:07:30;2.83;;;1.80;;
3083;SDS011;1552;51.952;7.618;2022-09-09T03:09:58;5.73;;;2.30;;
3083;SDS011;1552;51.952;7.618;2022-09-09T03:12:24;3.03;;;1.80;;
3083;SDS011;1552;51.952;7.618;2022-09-09T03:14:51;2.60;;;1.70;;
3083;SDS011;1552;51.952;7.618;2022-09-09T03:17:19;2.83;;;1.53;;
3083;SDS011;1552;51.952;7.618;2022-09-09T03:19:47;3.95;;;2.10;;
3083;SDS011;1552;51.952;7.618;2022-09-09T03:22:14;3.60;;;2.20;;
3083;SDS011;1552;51.952;7.618;2022-09-09T03:24:41;3.63;;;2.53;;
3083;SDS011;1552;51.952;7.618;2022-09-09T03:27:08;4.30;;;2.17;;
3083;SDS011;1552;51.952;7.618;2022-09-09T03:29:38;3.37;;;2.43;;
3083;SDS011;1552;51.952;7.618;2022-09-09T03:32:05;4.27;;;2.60;;
3083;SDS011;1552;51.952;7.618;2022-09-09T03:34:31;4.60;;;2.83;;
3083;SDS011;1552;51.952;7.618;2022-09-09T03:36:57;5.13;;;3.10;;
3083;SDS011;1552;51.952;7.618;2022-09-09T03:39:24;3.03;;;2.60;;
3083;SDS011;1552;51.952;7.618;2022-09-09T03:41:50;6.13;;;2.97;;
3083;SDS011;1552;51.952;7.618;2022-09-09T03:44:18;3.80;;;3.10;;
3083;SDS011;1552;51.952;7.618;2022-09-09T03:46:45;6.17;;;4.00;;
3083;SDS011;1552;51.952;7.618;2022-09-09T03:49:12;4.47;;;3.72;;
3083;SDS011;1552;51.952;7.618;2022-09-09T03:51:46;5.33;;;3.80;;
3083;SDS011;1552;51.952;7.618;2022-09-09T03:54:13;8.80;;;3.83;;
3083;SDS011;1552;51.952;7.618;2022-09-09T03:56:39;5.27;;;4.03;;
3083;SDS011;1552;51.952;7.618;2022-09-09T03:59:06;5.43;;;4.53;;
3083;SDS011;1552;51.952;7.618;2022-09-09T04:01:35;5.93;;;4.00;;
3083;SDS011;1552;51.952;7.618;2022-09-09T04:04:01;6.33;;;4.60;;
3083;SDS011;1552;51.952;7.618;2022-09-09T04:06:28;7.40;;;4.43;;
3083;SDS011;1552;51.952;7.618;2022-09-09T04:08:55;9.63;;;5.37;;
3083;SDS011;1552;51.952;7.618;2022-09-09T04:11:21;5.47;;;3.90;;
3083;SDS011;1552;51.952;7.618;2022-09-09T04:13:48;6.93;;;4.40;;
3083;SDS011;1552;51.952;7.618;2022-09-09T04:16:14;7.15;;;4.05;;
3083;SDS011;1552;51.952;7.618;2022-09-09T04:18:42;9.90;;;4.50;;
3083;SDS011;1552;51.952;7.618;2022-09-09T04:21:10;5.37;;;4.17;;
3083;SDS011;1552;51.952;7.618;2022-09-09T04:23:37;4.50;;;3.90;;
3083;SDS011;1552;51.952;7.618;2022-09-09T04:26:04;5.80;;;3.97;;
3083;SDS011;1552;51.952;7.618;2022-09-09T04:28:31;8.05;;;4.10;;
3083;SDS011;1552;51.952;7.618;2022-09-09T04:31:03;6.65;;;3.85;;
3083;SDS011;1552;51.952;7.618;2022-09-09T04:33:30;7.65;;;4.10;;
3083;SDS011;1552;51.952;7.618;2022-09-09T04:35:58;4.20;;;3.80;;
3083;SDS011;1552;51.952;7.618;2022-09-09T04:38:24;7.57;;;3.60;;
3083;SDS011;1552;51.952;7.618;2022-09-09T04:40:51;10.00;;;4.10;;
3083;SDS011;1552;51.952;7.618;2022-09-09T04:43:19;8.52;;;4.22;;
3083;SDS011;1552;51.952;7.618;2022-09-09T04:45:46;4.90;;;3.80;;
3083;SDS011;1552;51.952;7.618;2022-09-09T04:48:13;6.40;;;3.90;;
3083;SDS011;1552;51.952;7.618;2022-09-09T04:50:40;7.43;;;3.85;;
3083;SDS011;1552;51.952;7.618;2022-09-09T04:53:08;6.63;;;4.22;;
3083;SDS011;1552;51.952;7.618;2022-09-09T04:55:35;5.80;;;3.22;;
3083;SDS011;1552;51.952;7.618;2022-09-09T04:58:03;8.27;;;3.80;;
3083;SDS011;1552;51.952;7.618;2022-09-09T05:00:29;3.83;;;2.70;;
3083;SDS011;1552;51.952;7.618;2022-09-09T05:02:56;5.53;;;3.30;;
3083;SDS011;1552;51.952;7.618;2022-09-09T05:05:23;5.50;;;2.97;;
3083;SDS011;1552;51.952;7.618;2022-09-09T05:07:51;5.40;;;3.23;;
3083;SDS011;1552;51.952;7.618;2022-09-09T05:10:19;4.65;;;3.15;;
3083;SDS011;1552;51.952;7.618;2022-09-09T05:12:51;6.03;;;3.83;;
3083;SDS011;1552;51.952;7.618;2022-09-09T05:15:18;6.00;;;3.10;;
3083;SDS011;1552;51.952;7.618;2022-09-09T05:17:45;4.17;;;2.83;;
3083;SDS011;1552;51.952;7.618;2022-09-09T05:20:12;3.83;;;2.67;;
3083;SDS011;1552;51.952;7.618;2022-09-09T05:22:38;8.63;;;3.15;;
3083;SDS011;1552;51.952;7.618;2022-09-09T05:25:05;5.22;;;2.92;;
3083;SDS011;1552;51.952;7.618;2022-09-09T05:27:34;6.75;;;3.00;;
3083;SDS011;1552;51.952;7.618;2022-09-09T05:30:01;5.93;;;3.27;;
3083;SDS011;1552;51.952;7.618;2022-09-09T05:32:27;5.68;;;3.00;;
3083;SDS011;1552;51.952;7.618;2022-09-09T05:34:58;3.70;;;2.65;;
3083;SDS011;1552;51.952;7.618;2022-09-09T05:37:24;5.57;;;2.90;;
3083;SDS011;1552;51.952;7.618;2022-09-09T05:39:50;6.57;;;3.20;;
3083;SDS011;1552;51.952;7.618;2022-09-09T05:42:18;9.23;;;2.80;;
3083;SDS011;1552;51.952;7.618;2022-09-09T05:44:46;4.25;;;2.63;;
3083;SDS011;1552;51.952;7.618;2022-09-09T05:47:12;7.13;;;2.78;;
3083;SDS011;1552;51.952;7.618;2022-09-09T05:49:40;5.95;;;2.28;;
3083;SDS011;1552;51.952;7.618;2022-09-09T05:52:06;7.68;;;2.85;;
3083;SDS011;1552;51.952;7.618;2022-09-09T05:54:32;9.90;;;2.60;;
3083;SDS011;1552;51.952;7.618;2022-09-09T05:56:59;4.18;;;2.47;;
3083;SDS011;1552;51.952;7.618;2022-09-09T05:59:27;5.55;;;2.70;;
3083;SDS011;1552;51.952;7.618;2022-09-09T06:01:56;4.45;;;2.65;;
3083;SDS011;1552;51.952;7.618;2022-09-09T06:04:22;7.35;;;2.42;;
3083;SDS011;1552;51.952;7.618;2022-09-09T06:06:49;4.35;;;2.70;;
3083;SDS011;1552;51.952;7.618;2022-09-09T06:09:16;6.80;;;2.78;;
3083;SDS011;1552;51.952;7.618;2022-09-09T06:11:43;6.97;;;2.42;;
3083;SDS011;1552;51.952;7.618;2022-09-09T06:14:10;5.40;;;2.92;;
3083;SDS011;1552;51.952;7.618;2022-09-09T06:16:37;5.07;;;2.40;;
3083;SDS011;1552;51.952;7.618;2022-09-09T06:19:05;7.13;;;3.42;;
3083;SDS011;1552;51.952;7.618;2022-09-09T06:26:57;3.22;;;2.42;;
3083;SDS011;1552;51.952;7.618;2022-09-09T06:29:24;6.88;;;3.35;;
3083;SDS011;1552;51.952;7.618;2022-09-09T06:31:50;6.82;;;2.67;;
3083;SDS011;1552;51.952;7.618;2022-09-09T06:34:18;7.05;;;2.30;;
3083;SDS011;1552;51.952;7.618;2022-09-09T06:36:44;8.95;;;2.40;;
3083;SDS011;1552;51.952;7.618;2022-09-09T06:39:11;5.53;;;2.78;;
3083;SDS011;1552;51.952;7.618;2022-09-09T06:41:40;5.80;;;2.90;;
3083;SDS011;1552;51.952;7.618;2022-09-09T06:44:07;11.55;;;2.65;;
3083;SDS011;1552;51.952;7.618;2022-09-09T06:46:33;8.68;;;3.03;;
3083;SDS011;1552;51.952;7.618;2022-09-09T06:49:00;8.25;;;3.00;;
3083;SDS011;1552;51.952;7.618;2022-09-09T06:51:29;10.15;;;4.22;;
3083;SDS011;1552;51.952;7.618;2022-09-09T06:53:56;8.50;;;3.53;;
3083;SDS011;1552;51.952;7.618;2022-09-09T06:56:23;5.22;;;2.35;;
3083;SDS011;1552;51.952;7.618;2022-09-09T06:58:51;4.72;;;2.47;;
3083;SDS011;1552;51.952;7.618;2022-09-09T07:01:18;6.38;;;2.60;;
3083;SDS011;1552;51.952;7.618;2022-09-09T07:03:48;5.60;;;2.13;;
3083;SDS011;1552;51.952;7.618;2022-09-09T07:06:16;7.55;;;2.50;;
3083;SDS011;1552;51.952;7.618;2022-09-09T07:08:47;5.95;;;2.83;;
3083;SDS011;1552;51.952;7.618;2022-09-09T07:11:14;9.38;;;2.55;;
3083;SDS011;1552;51.952;7.618;2022-09-09T07:13:40;4.85;;;2.08;;
3083;SDS011;1552;51.952;7.618;2022-09-09T07:16:07;5.90;;;2.60;;
3083;SDS011;1552;51.952;7.618;2022-09-09T07:18:34;4.45;;;2.53;;
3083;SDS011;1552;51.952;7.618;2022-09-09T07:21:02;4.78;;;2.25;;
3083;SDS011;1552;51.952;7.618;2022-09-09T07:23:29;8.75;;;3.10;;
3083;SDS011;1552;51.952;7.618;2022-09-09T07:25:56;8.02;;;2.22;;
3083;SDS011;1552;51.952;7.618;2022-09-09T07:28:24;10.98;;;2.65;;
3083;SDS011;1552;51.952;7.618;2022-09-09T07:30:54;9.00;;;2.67;;
3083;SDS011;1552;51.952;7.618;2022-09-09T07:33:28;6.78;;;2.80;;
3083;SDS011;1552;51.952;7.618;2022-09-09T07:36:01;8.77;;;2.08;;
3083;SDS011;1552;51.952;7.618;2022-09-09T07:38:28;4.63;;;2.00;;
3083;SDS011;1552;51.952;7.618;2022-09-09T07:41:03;7.80;;;2.42;;
3083;SDS011;1552;51.952;7.618;2022-09-09T07:43:31;5.13;;;2.20;;
3083;SDS011;1552;51.952;7.618;2022-09-09T07:45:59;5.45;;;2.42;;
3083;SDS011;1552;51.952;7.618;2022-09-09T07:48:27;7.03;;;2.22;;
3083;SDS011;1552;51.952;7.618;2022-09-09T07:51:02;4.65;;;1.98;;
3083;SDS011;1552;51.952;7.618;2022-09-09T07:53:29;6.32;;;2.33;;
3083;SDS011;1552;51.952;7.618;2022-09-09T07:56:02;11.32;;;2.70;;
3083;SDS011;1552;51.952;7.618;2022-09-09T07:58:29;5.32;;;2.20;;
3083;SDS011;1552;51.952;7.618;2022-09-09T08:00:55;7.82;;;2.42;;
3083;SDS011;1552;51.952;7.618;2022-09-09T08:03:23;6.35;;;2.20;;
3083;SDS011;1552;51.952;7.618;2022-09-09T08:05:50;6.25;;;2.20;;
3083;SDS011;1552;51.952;7.618;2022-09-09T08:08:16;4.32;;;1.85;;
3083;SDS011;1552;51.952;7.618;2022-09-09T08:10:44;7.60;;;1.92;;
3083;SDS011;1552;51.952;7.618;2022-09-09T08:13:11;5.15;;;1.88;;
3083;SDS011;1552;51.952;7.618;2022-09-09T08:15:39;8.43;;;2.28;;
3083;SDS011;1552;51.952;7.618;2022-09-09T08:18:06;10.95;;;2.05;;
3083;SDS011;1552;51.952;7.618;2022-09-09T08:20:35;7.97;;;2.10;;
3083;SDS011;1552;51.952;7.618;2022-09-09T08:23:04;5.53;;;1.90;;
3083;SDS011;1552;51.952;7.618;2022-09-09T08:25:32;7.20;;;2.10;;
3083;SDS011;1552;51.952;7.618;2022-09-09T08:28:09;8.63;;;2.13;;
3083;SDS011;1552;51.952;7.618;2022-09-09T08:30:39;8.15;;;2.38;;
3083;SDS011;1552;51.952;7.618;2022-09-09T08:33:05;8.32;;;2.28;;
3083;SDS011;1552;51.952;7.618;2022-09-09T08:35:36;4.53;;;1.98;;
3083;SDS011;1552;51.952;7.618;2022-09-09T08:38:02;4.47;;;1.60;;
3083;SDS011;1552;51.952;7.618;2022-09-09T08:40:29;6.75;;;2.17;;
3083;SDS011;1552;51.952;7.618;2022-09-09T08:42:59;6.72;;;2.22;;
3083;SDS011;1552;51.952;7.618;2022-09-09T08:48:05;4.85;;;2.25;;
3083;SDS011;1552;51.952;7.618;2022-09-09T08:50:35;6.47;;;2.40;;
3083;SDS011;1552;51.952;7.618;2022-09-09T08:53:04;6.15;;;2.60;;
3083;SDS011;1552;51.952;7.618;2022-09-09T08:55:37;8.10;;;2.63;;
3083;SDS011;1552;51.952;7.618;2022-09-09T08:58:09;6.28;;;2.70;;
3083;SDS011;1552;51.952;7.618;2022-09-09T09:00:40;7.30;;;2.10;;
3083;SDS011;1552;51.952;7.618;2022-09-09T09:03:28;8.70;;;2.70;;
3083;SDS011;1552;51.952;7.618;2022-09-09T09:05:59;5.38;;;2.17;;
3083;SDS011;1552;51.952;7.618;2022-09-09T09:08:30;5.78;;;2.25;;
3083;SDS011;1552;51.952;7.618;2022-09-09T09:11:07;7.93;;;2.00;;
3083;SDS011;1552;51.952;7.618;2022-09-09T09:13:35;7.35;;;2.60;;
3083;SDS011;1552;51.952;7.618;2022-09-09T09:16:06;5.45;;;1.77;;
3083;SDS011;1552;51.952;7.618;2022-09-09T09:18:37;4.88;;;1.80;;
3083;SDS011;1552;51.952;7.618;2022-09-09T09:21:07;6.72;;;2.08;;
3083;SDS011;1552;51.952;7.618;2022-09-09T09:23:46;8.35;;;2.40;;
3083;SDS011;1552;51.952;7.618;2022-09-09T09:26:16;9.05;;;2.22;;
3083;SDS011;1552;51.952;7.618;2022-09-09T09:28:42;7.60;;;2.08;;
3083;SDS011;1552;51.952;7.618;2022-09-09T09:31:11;4.13;;;1.67;;
3083;SDS011;1552;51.952;7.618;2022-09-09T09:33:43;4.65;;;1.88;;
3083;SDS011;1552;51.952;7.618;2022-09-09T09:36:12;8.38;;;1.98;;
3083;SDS011;1552;51.952;7.618;2022-09-09T09:38:50;7.78;;;1.98;;
3083;SDS011;1552;51.952;7.618;2022-09-09T09:41:17;7.90;;;1.80;;
3083;SDS011;1552;51.952;7.618;2022-09-09T09:43:55;5.70;;;1.92;;
3083;SDS011;1552;51.952;7.618;2022-09-09T09:46:23;5.38;;;2.38;;
3083;SDS011;1552;51.952;7.618;2022-09-09T09:49:03;5.40;;;1.65;;
3083;SDS011;1552;51.952;7.618;2022-09-09T09:51:31;3.85;;;1.58;;
3083;SDS011;1552;51.952;7.618;2022-09-09T09:54:03;9.45;;;2.53;;
3083;SDS011;1552;51.952;7.618;2022-09-09T09:56:32;6.10;;;2.20;;
3083;SDS011;1552;51.952;7.618;2022-09-09T09:59:00;6.55;;;2.00;;
3083;SDS011;1552;51.952;7.618;2022-09-09T10:01:27;6.75;;;2.35;;
3083;SDS011;1552;51.952;7.618;2022-09-09T10:04:15;7.38;;;2.35;;
3083;SDS011;1552;51.952;7.618;2022-09-09T10:06:43;6.10;;;2.50;;
3083;SDS011;1552;51.952;7.618;2022-09-09T10:09:20;5.18;;;1.98;;
3083;SDS011;1552;51.952;7.618;2022-09-09T10:12:02;3.55;;;2.00;;
3083;SDS011;1552;51.952;7.618;2022-09-09T10:14:46;5.47;;;2.08;;
3083;SDS011;1552;51.952;7.618;2022-09-09T10:17:18;4.40;;;2.40;;
3083;SDS011;1552;51.952;7.618;2022-09-09T10:19:53;6.78;;;1.65;;
3083;SDS011;1552;51.952;7.618;2022-09-09T10:22:26;6.13;;;1.90;;
3083;SDS011;1552;51.952;7.618;2022-09-09T10:27:43;5.32;;;2.05;;
3083;SDS011;1552;51.952;7.618;2022-09-09T10:30:14;3.88;;;1.90;;
3083;SDS011;1552;51.952;7.618;2022-09-09T10:32:48;6.35;;;2.15;;
3083;SDS011;1552;51.952;7.618;2022-09-09T10:35:25;4.57;;;2.35;;
3083;SDS011;1552;51.952;7.618;2022-09-09T10:40:42;4.32;;;2.35;;
3083;SDS011;1552;51.952;7.618;2022-09-09T10:43:13;8.68;;;2.83;;
3083;SDS011;1552;51.952;7.618;2022-09-09T10:45:47;4.45;;;1.95;;
3083;SDS011;1552;51.952;7.618;2022-09-09T10:51:05;7.95;;;2.90;;
3083;SDS011;1552;51.952;7.618;2022-09-09T10:53:37;7.10;;;2.22;;
3083;SDS011;1552;51.952;7.618;2022-09-09T10:56:11;7.50;;;2.70;;
3083;SDS011;1552;51.952;7.618;2022-09-09T10:58:42;6.75;;;2.58;;
3083;SDS011;1552;51.952;7.618;2022-09-09T11:01:13;4.82;;;1.95;;
3083;SDS011;1552;51.952;7.618;2022-09-09T11:03:42;4.22;;;1.92;;
3083;SDS011;1552;51.952;7.618;2022-09-09T11:06:12;6.72;;;2.38;;
3083;SDS011;1552;51.952;7.618;2022-09-09T11:08:40;4.18;;;2.17;;
3083;SDS011;1552;51.952;7.618;2022-09-09T11:11:09;1.95;;;1.48;;
3083;SDS011;1552;51.952;7.618;2022-09-09T11:13:39;6.90;;;1.73;;
3083;SDS011;1552;51.952;7.618;2022-09-09T11:16:15;4.72;;;2.00;;
3083;SDS011;1552;51.952;7.618;2022-09-09T11:18:42;3.00;;;1.95;;
3083;SDS011;1552;51.952;7.618;2022-09-09T11:21:14;5.13;;;2.28;;
3083;SDS011;1552;51.952;7.618;2022-09-09T11:23:45;3.70;;;2.35;;
3083;SDS011;1552;51.952;7.618;2022-09-09T11:26:18;3.85;;;2.80;;
3083;SDS011;1552;51.952;7.618;2022-09-09T11:28:51;5.50;;;2.60;;
3083;SDS011;1552;51.952;7.618;2022-09-09T11:31:30;8.73;;;4.00;;
3083;SDS011;1552;51.952;7.618;2022-09-09T11:34:02;4.82;;;2.28;;
3083;SDS011;1552;51.952;7.618;2022-09-09T11:36:42;7.43;;;2.40;;
3083;SDS011;1552;51.952;7.618;2022-09-09T11:39:17;6.00;;;2.40;;
3083;SDS011;1552;51.952;7.618;2022-09-09T11:41:47;3.53;;;2.00;;
3083;SDS011;1552;51.952;7.618;2022-09-09T11:44:17;6.55;;;1.90;;
3083;SDS011;1552;51.952;7.618;2022-09-09T11:46:44;6.07;;;2.13;;
3083;SDS011;1552;51.952;7.618;2022-09-09T11:49:25;6.18;;;2.10;;
3083;SDS011;1552;51.952;7.618;2022-09-09T11:51:53;5.55;;;2.30;;
3083;SDS011;1552;51.952;7.618;2022-09-09T11:54:30;4.07;;;1.98;;
3083;SDS011;1552;51.952;7.618;2022-09-09T11:56:57;6.88;;;2.83;;
3083;SDS011;1552;51.952;7.618;2022-09-09T11:59:24;8.20;;;1.77;;
3083;SDS011;1552;51.952;7.618;2022-09-09T12:01:54;4.88;;;1.92;;
3083;SDS011;1552;51.952;7.618;2022-09-09T12:04:31;3.63;;;2.05;;
3083;SDS011;1552;51.952;7.618;2022-09-09T12:07:00;3.42;;;1.27;;
3083;SDS011;1552;51.952;7.618;2022-09-09T12:09:29;4.35;;;1.60;;
3083;SDS011;1552;51.952;7.618;2022-09-09T12:12:20;2.58;;;1.17;;
3083;SDS011;1552;51.952;7.618;2022-09-09T12:14:55;3.85;;;1.33;;
3083;SDS011;1552;51.952;7.618;2022-09-09T12:17:22;5.15;;;1.00;;
3083;SDS011;1552;51.952;7.618;2022-09-09T12:19:59;3.95;;;1.25;;
3083;SDS011;1552;51.952;7.618;2022-09-09T12:22:32;4.35;;;1.02;;
3083;SDS011;1552;51.952;7.618;2022-09-09T12:25:03;2.60;;;1.10;;
3083;SDS011;1552;51.952;7.618;2022-09-09T12:27:40;2.88;;;1.00;;
3083;SDS011;1552;51.952;7.618;2022-09-09T12:30:09;4.28;;;1.08;;
3083;SDS011;1552;51.952;7.618;2022-09-09T12:32:36;2.17;;;0.98;;
3083;SDS011;1552;51.952;7.618;2022-09-09T12:35:04;3.53;;;1.20;;
3083;SDS011;1552;51.952;7.618;2022-09-09T12:37:36;4.43;;;1.10;;
3083;SDS011;1552;51.952;7.618;2022-09-09T12:40:04;3.53;;;1.20;;
3083;SDS011;1552;51.952;7.618;2022-09-09T12:42:30;5.22;;;1.17;;
3083;SDS011;1552;51.952;7.618;2022-09-09T12:44:58;4.35;;;0.93;;
3083;SDS011;1552;51.952;7.618;2022-09-09T12:47:26;3.00;;;1.10;;
3083;SDS011;1552;51.952;7.618;2022-09-09T12:49:55;3.30;;;1.40;;
3083;SDS011;1552;51.952;7.618;2022-09-09T12:52:23;1.90;;;1.40;;
3083;SDS011;1552;51.952;7.618;2022-09-09T12:54:53;2.70;;;1.30;;
3083;SDS011;1552;51.952;7.618;2022-09-09T12:57:19;4.07;;;1.30;;
3083;SDS011;1552;51.952;7.618;2022-09-09T12:59:49;4.07;;;1.40;;
3083;SDS011;1552;51.952;7.618;2022-09-09T13:02:20;1.83;;;1.10;;
3083;SDS011;1552;51.952;7.618;2022-09-09T13:04:46;2.72;;;1.25;;
3083;SDS011;1552;51.952;7.618;2022-09-09T13:07:13;5.35;;;1.08;;
3083;SDS011;1552;51.952;7.618;2022-09-09T13:09:41;3.53;;;1.00;;
3083;SDS011;1552;51.952;7.618;2022-09-09T13:12:11;3.95;;;1.20;;
3083;SDS011;1552;51.952;7.618;2022-09-09T13:14:39;3.33;;;1.13;;
3083;SDS011;1552;51.952;7.618;2022-09-09T13:17:15;3.58;;;1.13;;
3083;SDS011;1552;51.952;7.618;2022-09-09T13:19:43;2.40;;;1.23;;
3083;SDS011;1552;51.952;7.618;2022-09-09T13:22:11;4.03;;;1.33;;
3083;SDS011;1552;51.952;7.618;2022-09-09T13:24:39;2.38;;;1.30;;
3083;SDS011;1552;51.952;7.618;2022-09-09T13:27:19;4.28;;;1.50;;
3083;SDS011;1552;51.952;7.618;2022-09-09T13:29:53;5.78;;;1.65;;
3083;SDS011;1552;51.952;7.618;2022-09-09T13:32:22;7.38;;;2.28;;
3083;SDS011;1552;51.952;7.618;2022-09-09T13:34:52;2.70;;;1.75;;
3083;SDS011;1552;51.952;7.618;2022-09-09T13:37:20;3.17;;;1.35;;
3083;SDS011;1552;51.952;7.618;2022-09-09T13:39:50;6.35;;;2.10;;
3083;SDS011;1552;51.952;7.618;2022-09-09T13:42:21;3.63;;;1.60;;
3083;SDS011;1552;51.952;7.618;2022-09-09T13:44:50;2.30;;;1.50;;
3083;SDS011;1552;51.952;7.618;2022-09-09T13:47:19;3.60;;;1.63;;
3083;SDS011;1552;51.952;7.618;2022-09-09T13:49:47;3.08;;;1.77;;
3083;SDS011;1552;51.952;7.618;2022-09-09T13:52:14;3.08;;;1.63;;
3083;SDS011;1552;51.952;7.618;2022-09-09T13:54:42;2.80;;;1.55;;
3083;SDS011;1552;51.952;7.618;2022-09-09T13:57:14;2.95;;;1.70;;
3083;SDS011;1552;51.952;7.618;2022-09-09T13:59:42;4.32;;;1.40;;
3083;SDS011;1552;51.952;7.618;2022-09-09T14:02:09;3.47;;;1.77;;
3083;SDS011;1552;51.952;7.618;2022-09-09T14:04:37;3.15;;;1.50;;
3083;SDS011;1552;51.952;7.618;2022-09-09T14:07:07;2.72;;;1.77;;
3083;SDS011;1552;51.952;7.618;2022-09-09T14:09:35;4.60;;;2.00;;
3083;SDS011;1552;51.952;7.618;2022-09-09T14:12:02;7.40;;;1.80;;
3083;SDS011;1552;51.952;7.618;2022-09-09T14:14:28;4.22;;;1.58;;
3083;SDS011;1552;51.952;7.618;2022-09-09T14:16:55;5.20;;;1.80;;
3083;SDS011;1552;51.952;7.618;2022-09-09T14:19:22;4.40;;;1.45;;
3083;SDS011;1552;51.952;7.618;2022-09-09T14:21:51;2.80;;;1.50;;
3083;SDS011;1552;51.952;7.618;2022-09-09T14:24:17;3.97;;;1.50;;
3083;SDS011;1552;51.952;7.618;2022-09-09T14:26:45;8.75;;;2.35;;
3083;SDS011;1552;51.952;7.618;2022-09-09T14:29:13;4.78;;;1.90;;
3083;SDS011;1552;51.952;7.618;2022-09-09T14:31:39;3.28;;;1.40;;
3083;SDS011;1552;51.952;7.618;2022-09-09T14:34:07;2.88;;;1.60;;
3083;SDS011;1552;51.952;7.618;2022-09-09T14:36:36;3.05;;;1.40;;
3083;SDS011;1552;51.952;7.618;2022-09-09T14:39:03;4.32;;;1.15;;
3083;SDS011;1552;51.952;7.618;2022-09-09T14:41:30;1.33;;;0.85;;
3083;SDS011;1552;51.952;7.618;2022-09-09T14:43:56;3.65;;;1.15;;
3083;SDS011;1552;51.952;7.618;2022-09-09T14:46:23;3.83;;;1.40;;
3083;SDS011;1552;51.952;7.618;2022-09-09T14:48:50;3.30;;;1.00;;
3083;SDS011;1552;51.952;7.618;2022-09-09T14:51:17;1.48;;;0.90;;
3083;SDS011;1552;51.952;7.618;2022-09-09T14:53:45;2.83;;;1.00;;
3083;SDS011;1552;51.952;7.618;2022-09-09T14:56:14;2.38;;;1.35;;
3083;SDS011;1552;51.952;7.618;2022-09-09T14:58:40;2.08;;;1.10;;
3083;SDS011;1552;51.952;7.618;2022-09-09T15:01:07;2.92;;;1.30;;
3083;SDS011;1552;51.952;7.618;2022-09-09T15:03:34;6.65;;;1.75;;
3083;SDS011;1552;51.952;7.618;2022-09-09T15:06:05;2.42;;;1.30;;
3083;SDS011;1552;51.952;7.618;2022-09-09T15:08:33;2.45;;;1.35;;
3083;SDS011;1552;51.952;7.618;2022-09-09T15:11:00;2.72;;;1.27;;
3083;SDS011;1552;51.952;7.618;2022-09-09T15:13:29;3.20;;;1.60;;
3083;SDS011;1552;51.952;7.618;2022-09-09T15:15:56;3.83;;;1.58;;
3083;SDS011;1552;51.952;7.618;2022-09-09T15:18:23;2.13;;;1.38;;
3083;SDS011;1552;51.952;7.618;2022-09-09T15:20:56;2.60;;;1.48;;
3083;SDS011;1552;51.952;7.618;2022-09-09T15:23:23;4.63;;;1.50;;
3083;SDS011;1552;51.952;7.618;2022-09-09T15:25:52;2.95;;;1.42;;
3083;SDS011;1552;51.952;7.618;2022-09-09T15:28:21;2.45;;;1.30;;
3083;SDS011;1552;51.952;7.618;2022-09-09T15:30:49;5.05;;;1.80;;
3083;SDS011;1552;51.952;7.618;2022-09-09T15:33:25;3.30;;;1.52;;
3083;SDS011;1552;51.952;7.618;2022-09-09T15:36:00;3.20;;;1.60;;
3083;SDS011;1552;51.952;7.618;2022-09-09T15:38:32;6.93;;;1.77;;
3083;SDS011;1552;51.952;7.618;2022-09-09T15:40:59;3.58;;;1.67;;
3083;SDS011;1552;51.952;7.618;2022-09-09T15:43:25;3.25;;;1.52;;
3083;SDS011;1552;51.952;7.618;2022-09-09T15:45:54;3.40;;;1.45;;